createdAt,value
2022-08-24T13:23:46.822Z,30.50
2022-08-24T13:26:26.582Z,30.50
2022-08-24T13:28:57.069Z,30.50
2022-08-24T13:31:33.123Z,30.60
2022-08-24T13:34:24.871Z,30.60
2022-08-24T13:37:14.244Z,30.60
2022-08-24T13:40:01.903Z,30.70
2022-08-24T13:42:58.058Z,30.60
2022-08-24T13:45:33.338Z,30.70
2022-08-24T13:48:17.041Z,30.60
2022-08-24T13:50:59.707Z,30.60
2022-08-24T13:53:53.379Z,30.60
2022-08-24T13:56:46.899Z,30.70
2022-08-24T13:59:21.463Z,30.70
2022-08-24T14:02:06.549Z,30.60
2022-08-24T14:04:55.604Z,30.60
2022-08-24T14:07:28.035Z,30.70
2022-08-24T14:10:08.095Z,30.80
2022-08-24T14:12:58.094Z,30.80
2022-08-24T14:15:36.208Z,30.80
2022-08-24T14:18:10.616Z,30.80
2022-08-24T14:21:09.034Z,30.80
2022-08-24T14:23:52.588Z,30.80
2022-08-24T14:27:06.912Z,30.80
2022-08-24T14:29:45.458Z,30.80
2022-08-24T14:32:45.105Z,30.80
2022-08-24T14:35:36.145Z,30.80
2022-08-24T14:38:27.876Z,30.80
2022-08-24T14:41:20.429Z,30.80
2022-08-24T14:44:07.037Z,30.80
2022-08-24T14:46:44.492Z,30.80
2022-08-24T14:49:19.391Z,30.80
2022-08-24T14:52:10.801Z,30.80
2022-08-24T14:54:48.679Z,30.80
2022-08-24T14:57:33.084Z,30.80
2022-08-24T15:00:10.952Z,30.90
2022-08-24T15:03:11.930Z,30.80
2022-08-24T15:06:25.675Z,30.80
2022-08-24T15:08:53.203Z,30.80
2022-08-24T15:11:26.399Z,30.80
2022-08-24T15:13:58.862Z,30.80
2022-08-24T15:16:34.659Z,30.80
2022-08-24T15:19:09.866Z,30.80
2022-08-24T15:21:49.766Z,30.80
2022-08-24T15:24:29.687Z,30.80
2022-08-24T15:27:07.859Z,30.70
2022-08-24T15:29:46.823Z,30.80
2022-08-24T15:32:15.527Z,30.70
2022-08-24T15:34:48.793Z,30.70
2022-08-24T15:37:26.086Z,30.70
2022-08-24T15:39:54.350Z,30.70
2022-08-24T15:42:22.815Z,30.60
2022-08-24T15:44:52.135Z,30.60
2022-08-24T15:47:25.971Z,30.60
2022-08-24T15:49:58.294Z,30.70
2022-08-24T15:52:43.297Z,30.70
2022-08-24T15:55:28.634Z,30.60
2022-08-24T15:57:58.068Z,30.60
2022-08-24T16:00:55.249Z,30.60
2022-08-24T16:03:25.854Z,30.60
2022-08-24T16:05:57.860Z,30.60
2022-08-24T16:08:25.971Z,30.60
2022-08-24T16:10:57.132Z,30.60
2022-08-24T16:13:30.946Z,30.50
2022-08-24T16:16:03.200Z,30.60
2022-08-24T16:18:50.003Z,30.60
2022-08-24T16:21:25.109Z,30.50
2022-08-24T16:23:59.895Z,30.50
2022-08-24T16:26:50.800Z,30.50
2022-08-24T16:29:44.789Z,30.40
2022-08-24T16:32:21.196Z,30.40
2022-08-24T16:34:53.446Z,30.40
2022-08-24T16:37:25.172Z,30.40
2022-08-24T16:39:53.419Z,30.30
2022-08-24T16:42:28.043Z,30.30
2022-08-24T16:44:57.406Z,30.30
2022-08-24T16:47:26.411Z,30.30
2022-08-24T16:49:54.625Z,30.20
2022-08-24T16:52:24.321Z,30.20
2022-08-24T16:54:52.539Z,30.20
2022-08-24T16:57:23.953Z,30.20
2022-08-24T16:59:53.807Z,30.20
2022-08-24T17:02:22.876Z,30.10
2022-08-24T17:04:51.177Z,30.10
2022-08-24T17:07:24.470Z,30.10
2022-08-24T17:09:53.150Z,30.10
2022-08-24T17:12:21.667Z,30.10
2022-08-24T17:14:50.075Z,30.10
2022-08-24T17:17:21.634Z,30.00
2022-08-24T17:19:51.008Z,30.00
2022-08-24T17:22:19.296Z,29.90
2022-08-24T17:24:48.853Z,29.90
2022-08-24T17:27:18.354Z,29.90
2022-08-24T17:29:47.089Z,29.80
2022-08-24T17:32:16.379Z,29.80
2022-08-24T17:34:44.646Z,29.80
2022-08-24T17:37:13.011Z,29.70
2022-08-24T17:39:41.260Z,29.80
2022-08-24T17:42:33.825Z,29.80
2022-08-24T17:44:59.404Z,29.70
2022-08-24T17:47:28.297Z,29.70
2022-08-24T17:49:56.882Z,29.70
2022-08-24T17:52:25.520Z,29.60
2022-08-24T17:54:54.257Z,29.60
2022-08-24T17:57:26.882Z,29.60
2022-08-24T17:59:55.812Z,29.50
2022-08-24T18:02:24.075Z,29.60
2022-08-24T18:04:52.307Z,29.50
2022-08-24T18:07:42.142Z,29.50
2022-08-24T18:10:12.156Z,29.50
2022-08-24T18:12:41.628Z,29.50
2022-08-24T18:15:10.815Z,29.50
2022-08-24T18:17:42.020Z,29.40
2022-08-24T18:20:12.767Z,29.30
2022-08-24T18:22:44.862Z,29.30
2022-08-24T18:25:13.566Z,29.30
2022-08-24T18:27:44.795Z,29.30
2022-08-24T18:30:20.024Z,29.30
2022-08-24T18:32:50.668Z,29.20
2022-08-24T18:35:19.031Z,29.20
2022-08-24T18:37:47.186Z,29.20
2022-08-24T18:40:20.563Z,29.20
2022-08-24T18:42:51.738Z,29.10
2022-08-24T18:45:20.216Z,29.10
2022-08-24T18:47:52.933Z,29.10
2022-08-24T18:50:22.112Z,29.10
2022-08-24T18:52:50.307Z,29.00
2022-08-24T18:55:18.911Z,29.00
2022-08-24T18:57:46.973Z,29.00
2022-08-24T19:00:17.592Z,29.00
2022-08-24T19:02:45.709Z,28.90
2022-08-24T19:05:18.274Z,28.90
2022-08-24T19:07:48.657Z,28.90
2022-08-24T19:10:18.861Z,28.90
2022-08-24T19:12:50.108Z,28.80
2022-08-24T19:15:32.156Z,28.80
2022-08-24T19:18:09.729Z,28.80
2022-08-24T19:20:42.384Z,28.80
2022-08-24T19:23:18.503Z,28.70
2022-08-24T19:25:47.430Z,28.70
2022-08-24T19:28:16.059Z,28.70
2022-08-24T19:30:46.912Z,28.70
2022-08-24T19:33:18.277Z,28.60
2022-08-24T19:35:46.413Z,28.70
2022-08-24T19:38:14.579Z,28.60
2022-08-24T19:40:47.984Z,28.60
2022-08-24T19:43:17.719Z,28.50
2022-08-24T19:46:02.261Z,28.50
2022-08-24T19:48:31.724Z,28.50
2022-08-24T19:51:02.251Z,28.50
2022-08-24T19:53:32.913Z,28.50
2022-08-24T19:56:01.780Z,28.40
2022-08-24T19:58:32.343Z,28.40
2022-08-24T20:01:05.426Z,28.40
2022-08-24T20:03:33.548Z,28.30
2022-08-24T20:06:01.695Z,28.30
2022-08-24T20:08:29.916Z,28.30
2022-08-24T20:11:00.461Z,28.30
2022-08-24T20:13:29.058Z,28.30
2022-08-24T20:15:58.385Z,28.30
2022-08-24T20:18:32.076Z,28.20
2022-08-24T20:21:01.109Z,28.20
2022-08-24T20:23:30.187Z,28.20
2022-08-24T20:26:00.520Z,28.20
2022-08-24T20:28:37.870Z,28.10
2022-08-24T20:31:06.788Z,28.10
2022-08-24T20:33:36.745Z,28.10
2022-08-24T20:36:05.737Z,28.10
2022-08-24T20:38:36.292Z,28.10
2022-08-24T20:41:05.285Z,28.10
2022-08-24T20:43:33.384Z,28.00
2022-08-24T20:46:01.866Z,28.00
2022-08-24T20:48:33.164Z,28.00
2022-08-24T20:51:02.813Z,28.00
2022-08-24T20:53:30.963Z,28.00
2022-08-24T20:56:02.530Z,28.00
2022-08-24T20:58:30.667Z,27.90
2022-08-24T21:00:58.880Z,27.90
2022-08-24T21:03:27.056Z,27.80
2022-08-24T21:05:55.321Z,27.80
2022-08-24T21:08:25.805Z,27.80
2022-08-24T21:10:54.625Z,27.80
2022-08-24T21:13:22.868Z,27.70
2022-08-24T21:15:52.312Z,27.70
2022-08-24T21:18:20.988Z,27.70
2022-08-24T21:21:03.857Z,27.70
2022-08-24T21:23:35.236Z,27.60
2022-08-24T21:26:04.424Z,27.60
2022-08-24T21:28:33.161Z,27.90
2022-08-24T21:31:05.292Z,27.50
2022-08-24T21:33:52.012Z,27.50
2022-08-24T21:36:23.365Z,27.50
2022-08-24T21:38:54.613Z,27.50
2022-08-24T21:41:23.066Z,27.40
2022-08-24T21:43:51.266Z,27.50
2022-08-24T21:46:19.552Z,27.50
2022-08-24T21:48:47.892Z,27.40
2022-08-24T21:51:16.198Z,27.30
2022-08-24T21:53:44.338Z,27.30
2022-08-24T21:56:14.426Z,27.30
2022-08-24T21:58:42.955Z,27.30
2022-08-24T22:01:11.146Z,27.30
2022-08-24T22:03:40.245Z,27.30
2022-08-24T22:06:09.604Z,27.30
2022-08-24T22:08:38.329Z,27.30
2022-08-24T22:11:06.797Z,27.20
2022-08-24T22:13:36.908Z,27.20
2022-08-24T22:16:06.728Z,27.20
2022-08-24T22:18:35.524Z,27.20
2022-08-24T22:21:08.168Z,27.20
2022-08-24T22:23:36.768Z,27.20
2022-08-24T22:26:05.804Z,27.20
2022-08-24T22:28:35.606Z,27.10
2022-08-24T22:31:04.056Z,27.00
2022-08-24T22:33:32.287Z,27.10
2022-08-24T22:36:00.393Z,27.00
2022-08-24T22:38:28.551Z,27.00
2022-08-24T22:40:57.001Z,27.00
2022-08-24T22:43:45.049Z,26.90
2022-08-24T22:46:14.904Z,26.90
2022-08-24T22:48:43.043Z,27.00
2022-08-24T22:51:12.545Z,27.00
2022-08-24T22:53:41.646Z,26.90
2022-08-24T22:56:15.989Z,26.90
2022-08-24T22:58:44.302Z,26.90
2022-08-24T23:01:21.167Z,26.90
2022-08-24T23:03:50.093Z,26.90
2022-08-24T23:06:19.140Z,26.90
2022-08-24T23:08:47.251Z,26.80
2022-08-24T23:11:16.023Z,26.80
2022-08-24T23:13:44.285Z,26.80
2022-08-24T23:16:14.693Z,26.70
2022-08-24T23:19:02.044Z,26.70
2022-08-24T23:21:31.879Z,26.80
2022-08-24T23:24:00.040Z,26.70
2022-08-24T23:26:28.633Z,26.70
2022-08-24T23:28:56.729Z,26.70
2022-08-24T23:31:25.001Z,26.70
2022-08-24T23:33:54.755Z,26.70
2022-08-24T23:36:26.010Z,26.70
2022-08-24T23:38:57.697Z,26.60
2022-08-24T23:41:28.364Z,26.60
2022-08-24T23:43:57.560Z,26.60
2022-08-24T23:46:25.912Z,26.60
2022-08-24T23:48:57.215Z,26.60
2022-08-24T23:51:27.040Z,26.60
2022-08-24T23:53:56.945Z,26.50
2022-08-24T23:56:28.407Z,26.40
2022-08-24T23:59:02.591Z,26.40
